sensor_id;sensor_type;location;lat;lon;timestamp;temperature;humidity
11615;DHT22;5863;52.832;4.758;2023-02-28T00:00:48;5.40;99.90
11615;DHT22;5863;52.832;4.758;2023-02-28T00:03:15;5.50;99.90
11615;DHT22;5863;52.832;4.758;2023-02-28T00:05:42;5.50;99.90
11615;DHT22;5863;52.832;4.758;2023-02-28T00:08:09;5.60;99.90
11615;DHT22;5863;52.832;4.758;2023-02-28T00:10:36;5.60;99.90
11615;DHT22;5863;52.832;4.758;2023-02-28T00:13:05;5.60;99.90
11615;DHT22;5863;52.832;4.758;2023-02-28T00:15:33;5.60;99.90
11615;DHT22;5863;52.832;4.758;2023-02-28T00:18:02;5.60;99.90
11615;DHT22;5863;52.832;4.758;2023-02-28T00:20:29;5.60;99.90
11615;DHT22;5863;52.832;4.758;2023-02-28T00:22:55;5.70;99.90
11615;DHT22;5863;52.832;4.758;2023-02-28T00:25:23;5.60;99.90
11615;DHT22;5863;52.832;4.758;2023-02-28T00:27:51;5.60;99.90
11615;DHT22;5863;52.832;4.758;2023-02-28T00:30:19;5.70;99.90
11615;DHT22;5863;52.832;4.758;2023-02-28T00:32:48;5.70;99.90
11615;DHT22;5863;52.832;4.758;2023-02-28T00:35:15;5.70;99.90
11615;DHT22;5863;52.832;4.758;2023-02-28T00:37:41;5.60;99.90
11615;DHT22;5863;52.832;4.758;2023-02-28T00:40:09;5.70;99.90
11615;DHT22;5863;52.832;4.758;2023-02-28T00:42:37;5.70;99.90
11615;DHT22;5863;52.832;4.758;2023-02-28T00:45:05;5.70;99.90
11615;DHT22;5863;52.832;4.758;2023-02-28T00:47:32;5.70;99.90
11615;DHT22;5863;52.832;4.758;2023-02-28T00:50:00;5.70;99.90
11615;DHT22;5863;52.832;4.758;2023-02-28T00:52:28;5.70;99.90
11615;DHT22;5863;52.832;4.758;2023-02-28T00:54:54;5.70;99.90
11615;DHT22;5863;52.832;4.758;2023-02-28T00:57:21;5.60;99.90
11615;DHT22;5863;52.832;4.758;2023-02-28T00:59:48;5.60;99.90
11615;DHT22;5863;52.832;4.758;2023-02-28T01:02:14;5.70;99.90
11615;DHT22;5863;52.832;4.758;2023-02-28T01:04:41;5.70;99.90
11615;DHT22;5863;52.832;4.758;2023-02-28T01:07:09;5.80;99.90
11615;DHT22;5863;52.832;4.758;2023-02-28T01:09:36;5.80;99.90
11615;DHT22;5863;52.832;4.758;2023-02-28T01:12:03;5.80;99.90
11615;DHT22;5863;52.832;4.758;2023-02-28T01:14:30;5.80;99.90
11615;DHT22;5863;52.832;4.758;2023-02-28T01:16:56;5.80;99.90
11615;DHT22;5863;52.832;4.758;2023-02-28T01:19:23;5.80;99.90
11615;DHT22;5863;52.832;4.758;2023-02-28T01:21:50;5.80;99.90
11615;DHT22;5863;52.832;4.758;2023-02-28T01:24:18;5.80;99.90
11615;DHT22;5863;52.832;4.758;2023-02-28T01:26:44;5.80;99.90
11615;DHT22;5863;52.832;4.758;2023-02-28T01:29:11;5.80;99.90
11615;DHT22;5863;52.832;4.758;2023-02-28T01:31:39;5.80;99.90
11615;DHT22;5863;52.832;4.758;2023-02-28T01:34:05;5.80;99.90
11615;DHT22;5863;52.832;4.758;2023-02-28T01:36:32;5.80;99.90
11615;DHT22;5863;52.832;4.758;2023-02-28T01:39:02;5.90;99.90
11615;DHT22;5863;52.832;4.758;2023-02-28T01:41:33;5.90;99.90
11615;DHT22;5863;52.832;4.758;2023-02-28T01:44:03;5.80;99.90
11615;DHT22;5863;52.832;4.758;2023-02-28T01:46:31;5.80;99.90
11615;DHT22;5863;52.832;4.758;2023-02-28T01:49:02;5.90;99.90
11615;DHT22;5863;52.832;4.758;2023-02-28T01:51:36;5.90;99.90
11615;DHT22;5863;52.832;4.758;2023-02-28T01:54:08;5.90;99.90
11615;DHT22;5863;52.832;4.758;2023-02-28T01:56:43;6.00;99.90
11615;DHT22;5863;52.832;4.758;2023-02-28T01:59:18;6.00;99.90
11615;DHT22;5863;52.832;4.758;2023-02-28T02:01:46;6.00;99.90
11615;DHT22;5863;52.832;4.758;2023-02-28T02:04:12;5.90;99.90
11615;DHT22;5863;52.832;4.758;2023-02-28T02:06:43;6.00;99.90
11615;DHT22;5863;52.832;4.758;2023-02-28T02:09:10;6.00;99.90
11615;DHT22;5863;52.832;4.758;2023-02-28T02:11:42;5.90;99.90
11615;DHT22;5863;52.832;4.758;2023-02-28T02:14:32;5.90;99.90
11615;DHT22;5863;52.832;4.758;2023-02-28T02:17:10;5.80;99.90
11615;DHT22;5863;52.832;4.758;2023-02-28T02:20:09;5.80;99.90
11615;DHT22;5863;52.832;4.758;2023-02-28T02:25:52;5.80;99.90
11615;DHT22;5863;52.832;4.758;2023-02-28T02:28:50;5.80;99.90
11615;DHT22;5863;52.832;4.758;2023-02-28T02:31:55;5.80;99.90
11615;DHT22;5863;52.832;4.758;2023-02-28T02:34:50;5.70;99.90
11615;DHT22;5863;52.832;4.758;2023-02-28T02:37:28;5.80;99.90
11615;DHT22;5863;52.832;4.758;2023-02-28T02:40:03;5.70;99.90
11615;DHT22;5863;52.832;4.758;2023-02-28T02:42:37;5.70;99.90
11615;DHT22;5863;52.832;4.758;2023-02-28T02:45:08;5.70;99.90
11615;DHT22;5863;52.832;4.758;2023-02-28T02:47:37;5.60;99.90
11615;DHT22;5863;52.832;4.758;2023-02-28T02:50:11;5.70;99.90
11615;DHT22;5863;52.832;4.758;2023-02-28T02:52:42;5.60;99.90
11615;DHT22;5863;52.832;4.758;2023-02-28T02:55:13;5.70;99.90
11615;DHT22;5863;52.832;4.758;2023-02-28T02:57:45;5.70;99.90
11615;DHT22;5863;52.832;4.758;2023-02-28T03:00:16;5.80;99.90
11615;DHT22;5863;52.832;4.758;2023-02-28T03:02:44;5.80;99.90
11615;DHT22;5863;52.832;4.758;2023-02-28T03:05:19;5.80;99.90
11615;DHT22;5863;52.832;4.758;2023-02-28T03:07:46;5.80;99.90
11615;DHT22;5863;52.832;4.758;2023-02-28T03:10:32;5.90;99.90
11615;DHT22;5863;52.832;4.758;2023-02-28T03:13:24;5.90;99.90
11615;DHT22;5863;52.832;4.758;2023-02-28T03:16:09;5.80;99.90
11615;DHT22;5863;52.832;4.758;2023-02-28T03:18:43;5.80;99.90
11615;DHT22;5863;52.832;4.758;2023-02-28T03:21:23;5.90;99.90
11615;DHT22;5863;52.832;4.758;2023-02-28T03:23:56;5.90;99.90
11615;DHT22;5863;52.832;4.758;2023-02-28T03:26:26;5.90;99.90
11615;DHT22;5863;52.832;4.758;2023-02-28T03:28:58;6.00;99.90
11615;DHT22;5863;52.832;4.758;2023-02-28T03:31:44;6.00;99.90
11615;DHT22;5863;52.832;4.758;2023-02-28T03:34:15;6.00;99.90
11615;DHT22;5863;52.832;4.758;2023-02-28T03:36:47;6.10;99.90
11615;DHT22;5863;52.832;4.758;2023-02-28T03:39:18;6.00;99.90
11615;DHT22;5863;52.832;4.758;2023-02-28T03:41:50;6.00;99.90
11615;DHT22;5863;52.832;4.758;2023-02-28T03:44:21;6.00;99.90
11615;DHT22;5863;52.832;4.758;2023-02-28T03:46:52;6.00;99.90
11615;DHT22;5863;52.832;4.758;2023-02-28T03:49:26;6.00;99.90
11615;DHT22;5863;52.832;4.758;2023-02-28T03:51:56;6.00;99.90
11615;DHT22;5863;52.832;4.758;2023-02-28T03:54:28;6.00;99.90
11615;DHT22;5863;52.832;4.758;2023-02-28T03:56:59;6.10;99.90
11615;DHT22;5863;52.832;4.758;2023-02-28T03:59:29;6.10;99.90
11615;DHT22;5863;52.832;4.758;2023-02-28T04:01:57;6.10;99.90
11615;DHT22;5863;52.832;4.758;2023-02-28T04:04:25;6.10;99.90
11615;DHT22;5863;52.832;4.758;2023-02-28T04:06:52;6.10;99.90
11615;DHT22;5863;52.832;4.758;2023-02-28T04:09:20;6.10;99.90
11615;DHT22;5863;52.832;4.758;2023-02-28T04:11:51;6.10;99.90
11615;DHT22;5863;52.832;4.758;2023-02-28T04:14:18;6.10;99.90
11615;DHT22;5863;52.832;4.758;2023-02-28T04:16:47;6.20;99.90
11615;DHT22;5863;52.832;4.758;2023-02-28T04:19:16;6.20;99.90
11615;DHT22;5863;52.832;4.758;2023-02-28T04:21:44;6.30;99.90
11615;DHT22;5863;52.832;4.758;2023-02-28T04:24:13;6.30;99.90
11615;DHT22;5863;52.832;4.758;2023-02-28T04:26:43;6.20;99.90
11615;DHT22;5863;52.832;4.758;2023-02-28T04:29:20;6.20;99.90
11615;DHT22;5863;52.832;4.758;2023-02-28T04:31:47;6.30;99.90
11615;DHT22;5863;52.832;4.758;2023-02-28T04:34:14;6.30;99.90
11615;DHT22;5863;52.832;4.758;2023-02-28T04:36:42;6.20;99.90
11615;DHT22;5863;52.832;4.758;2023-02-28T04:39:11;6.30;99.90
11615;DHT22;5863;52.832;4.758;2023-02-28T04:41:38;6.40;99.90
11615;DHT22;5863;52.832;4.758;2023-02-28T04:44:06;6.40;99.90
11615;DHT22;5863;52.832;4.758;2023-02-28T04:46:32;6.40;99.90
11615;DHT22;5863;52.832;4.758;2023-02-28T04:48:59;6.40;99.90
11615;DHT22;5863;52.832;4.758;2023-02-28T04:51:27;6.40;99.90
11615;DHT22;5863;52.832;4.758;2023-02-28T04:53:54;6.40;99.90
11615;DHT22;5863;52.832;4.758;2023-02-28T04:56:21;6.40;99.90
11615;DHT22;5863;52.832;4.758;2023-02-28T04:58:48;6.50;99.90
11615;DHT22;5863;52.832;4.758;2023-02-28T05:01:20;6.40;99.90
11615;DHT22;5863;52.832;4.758;2023-02-28T05:03:49;6.40;99.90
11615;DHT22;5863;52.832;4.758;2023-02-28T05:06:16;6.50;99.90
11615;DHT22;5863;52.832;4.758;2023-02-28T05:08:43;6.50;99.90
11615;DHT22;5863;52.832;4.758;2023-02-28T05:11:15;6.40;99.90
11615;DHT22;5863;52.832;4.758;2023-02-28T05:13:42;6.40;99.90
11615;DHT22;5863;52.832;4.758;2023-02-28T05:16:09;6.40;99.90
11615;DHT22;5863;52.832;4.758;2023-02-28T05:18:37;6.40;99.90
11615;DHT22;5863;52.832;4.758;2023-02-28T05:21:04;6.40;99.90
11615;DHT22;5863;52.832;4.758;2023-02-28T05:23:31;6.40;99.90
11615;DHT22;5863;52.832;4.758;2023-02-28T05:25:58;6.40;99.90
11615;DHT22;5863;52.832;4.758;2023-02-28T05:28:25;6.50;99.90
11615;DHT22;5863;52.832;4.758;2023-02-28T05:30:51;6.40;99.90
11615;DHT22;5863;52.832;4.758;2023-02-28T05:33:18;6.50;99.90
11615;DHT22;5863;52.832;4.758;2023-02-28T05:35:46;6.50;99.90
11615;DHT22;5863;52.832;4.758;2023-02-28T05:38:13;6.50;99.90
11615;DHT22;5863;52.832;4.758;2023-02-28T05:40:39;6.50;99.90
11615;DHT22;5863;52.832;4.758;2023-02-28T05:43:10;6.40;99.90
11615;DHT22;5863;52.832;4.758;2023-02-28T05:45:37;6.50;99.90
11615;DHT22;5863;52.832;4.758;2023-02-28T05:48:04;6.60;99.90
11615;DHT22;5863;52.832;4.758;2023-02-28T05:50:30;6.50;99.90
11615;DHT22;5863;52.832;4.758;2023-02-28T05:52:58;6.50;99.90
11615;DHT22;5863;52.832;4.758;2023-02-28T05:55:25;6.50;99.90
11615;DHT22;5863;52.832;4.758;2023-02-28T05:57:52;6.50;99.90
11615;DHT22;5863;52.832;4.758;2023-02-28T06:00:19;6.60;99.90
11615;DHT22;5863;52.832;4.758;2023-02-28T06:02:46;6.60;99.90
11615;DHT22;5863;52.832;4.758;2023-02-28T06:05:13;6.50;99.90
11615;DHT22;5863;52.832;4.758;2023-02-28T06:07:40;6.60;99.90
11615;DHT22;5863;52.832;4.758;2023-02-28T06:10:09;6.60;99.90
11615;DHT22;5863;52.832;4.758;2023-02-28T06:12:37;6.60;99.90
11615;DHT22;5863;52.832;4.758;2023-02-28T06:15:05;6.60;99.90
11615;DHT22;5863;52.832;4.758;2023-02-28T06:17:32;6.60;99.90
11615;DHT22;5863;52.832;4.758;2023-02-28T06:20:00;6.60;99.90
11615;DHT22;5863;52.832;4.758;2023-02-28T06:22:28;6.60;99.90
11615;DHT22;5863;52.832;4.758;2023-02-28T06:24:54;6.60;99.90
11615;DHT22;5863;52.832;4.758;2023-02-28T06:27:23;6.70;99.90
11615;DHT22;5863;52.832;4.758;2023-02-28T06:29:54;6.70;99.90
11615;DHT22;5863;52.832;4.758;2023-02-28T06:32:21;6.70;99.90
11615;DHT22;5863;52.832;4.758;2023-02-28T06:34:48;6.70;99.90
11615;DHT22;5863;52.832;4.758;2023-02-28T06:37:18;6.70;99.90
11615;DHT22;5863;52.832;4.758;2023-02-28T06:39:45;6.80;99.90
11615;DHT22;5863;52.832;4.758;2023-02-28T06:42:11;6.70;99.90
11615;DHT22;5863;52.832;4.758;2023-02-28T06:44:39;6.70;99.90
11615;DHT22;5863;52.832;4.758;2023-02-28T06:47:08;6.70;99.90
11615;DHT22;5863;52.832;4.758;2023-02-28T06:49:35;6.70;99.90
11615;DHT22;5863;52.832;4.758;2023-02-28T06:52:03;6.70;99.90
11615;DHT22;5863;52.832;4.758;2023-02-28T06:54:30;6.70;99.90
11615;DHT22;5863;52.832;4.758;2023-02-28T06:56:57;6.70;99.90
11615;DHT22;5863;52.832;4.758;2023-02-28T06:59:24;6.70;99.90
11615;DHT22;5863;52.832;4.758;2023-02-28T07:01:52;6.70;99.90
11615;DHT22;5863;52.832;4.758;2023-02-28T07:04:20;6.70;99.90
11615;DHT22;5863;52.832;4.758;2023-02-28T07:06:47;6.70;99.90
11615;DHT22;5863;52.832;4.758;2023-02-28T07:09:13;6.80;99.90
11615;DHT22;5863;52.832;4.758;2023-02-28T07:11:42;6.80;99.90
11615;DHT22;5863;52.832;4.758;2023-02-28T07:14:09;6.80;99.90
11615;DHT22;5863;52.832;4.758;2023-02-28T07:16:36;6.90;99.90
11615;DHT22;5863;52.832;4.758;2023-02-28T07:19:04;6.80;99.90
11615;DHT22;5863;52.832;4.758;2023-02-28T07:21:32;6.90;99.90
11615;DHT22;5863;52.832;4.758;2023-02-28T07:23:59;6.90;99.90
11615;DHT22;5863;52.832;4.758;2023-02-28T07:26:25;6.90;99.90
11615;DHT22;5863;52.832;4.758;2023-02-28T07:28:52;6.80;99.90
11615;DHT22;5863;52.832;4.758;2023-02-28T07:31:19;6.80;99.90
11615;DHT22;5863;52.832;4.758;2023-02-28T07:33:46;6.90;99.90
11615;DHT22;5863;52.832;4.758;2023-02-28T07:36:15;6.90;99.90
11615;DHT22;5863;52.832;4.758;2023-02-28T07:38:45;6.90;99.90
11615;DHT22;5863;52.832;4.758;2023-02-28T07:41:13;7.00;99.90
11615;DHT22;5863;52.832;4.758;2023-02-28T07:43:40;7.00;99.90
11615;DHT22;5863;52.832;4.758;2023-02-28T07:46:08;7.00;99.90
11615;DHT22;5863;52.832;4.758;2023-02-28T07:48:35;7.00;99.90
11615;DHT22;5863;52.832;4.758;2023-02-28T07:51:02;7.00;99.90
11615;DHT22;5863;52.832;4.758;2023-02-28T07:53:30;7.00;99.90
11615;DHT22;5863;52.832;4.758;2023-02-28T07:55:59;7.00;99.90
11615;DHT22;5863;52.832;4.758;2023-02-28T07:58:27;7.10;99.90
11615;DHT22;5863;52.832;4.758;2023-02-28T08:00:54;7.10;99.90
11615;DHT22;5863;52.832;4.758;2023-02-28T08:03:22;7.10;99.90
11615;DHT22;5863;52.832;4.758;2023-02-28T08:05:49;7.10;99.90
11615;DHT22;5863;52.832;4.758;2023-02-28T08:08:17;7.10;99.90
11615;DHT22;5863;52.832;4.758;2023-02-28T08:10:45;7.10;99.90
11615;DHT22;5863;52.832;4.758;2023-02-28T08:13:12;7.10;99.90
11615;DHT22;5863;52.832;4.758;2023-02-28T08:15:40;7.00;99.90
11615;DHT22;5863;52.832;4.758;2023-02-28T08:18:08;6.90;99.90
11615;DHT22;5863;52.832;4.758;2023-02-28T08:20:34;6.80;99.90
11615;DHT22;5863;52.832;4.758;2023-02-28T08:23:01;6.70;99.90
11615;DHT22;5863;52.832;4.758;2023-02-28T08:25:28;6.60;99.90
11615;DHT22;5863;52.832;4.758;2023-02-28T08:27:56;6.50;99.90
11615;DHT22;5863;52.832;4.758;2023-02-28T08:30:25;6.50;99.90
11615;DHT22;5863;52.832;4.758;2023-02-28T08:32:51;6.40;99.90
11615;DHT22;5863;52.832;4.758;2023-02-28T08:35:18;6.40;99.90
11615;DHT22;5863;52.832;4.758;2023-02-28T08:37:47;6.30;99.90
11615;DHT22;5863;52.832;4.758;2023-02-28T08:40:14;6.20;99.90
11615;DHT22;5863;52.832;4.758;2023-02-28T08:42:43;6.20;99.90
11615;DHT22;5863;52.832;4.758;2023-02-28T08:45:11;6.10;99.90
11615;DHT22;5863;52.832;4.758;2023-02-28T08:47:39;6.10;99.90
11615;DHT22;5863;52.832;4.758;2023-02-28T08:50:06;6.00;99.90
11615;DHT22;5863;52.832;4.758;2023-02-28T08:52:33;6.00;99.90
11615;DHT22;5863;52.832;4.758;2023-02-28T08:55:00;5.90;99.90
11615;DHT22;5863;52.832;4.758;2023-02-28T08:57:26;5.70;99.90
11615;DHT22;5863;52.832;4.758;2023-02-28T08:59:53;5.90;99.90
11615;DHT22;5863;52.832;4.758;2023-02-28T09:02:21;5.80;99.90
11615;DHT22;5863;52.832;4.758;2023-02-28T09:04:48;5.80;99.90
11615;DHT22;5863;52.832;4.758;2023-02-28T09:07:14;5.80;99.90
11615;DHT22;5863;52.832;4.758;2023-02-28T09:09:41;5.80;99.90
11615;DHT22;5863;52.832;4.758;2023-02-28T09:12:19;5.80;99.90
11615;DHT22;5863;52.832;4.758;2023-02-28T09:14:45;5.80;99.90
11615;DHT22;5863;52.832;4.758;2023-02-28T09:17:12;5.70;99.90
11615;DHT22;5863;52.832;4.758;2023-02-28T09:19:40;5.80;99.90
11615;DHT22;5863;52.832;4.758;2023-02-28T09:22:08;5.80;99.90
11615;DHT22;5863;52.832;4.758;2023-02-28T09:24:36;5.70;99.90
11615;DHT22;5863;52.832;4.758;2023-02-28T09:27:03;5.70;99.90
11615;DHT22;5863;52.832;4.758;2023-02-28T09:29:33;5.70;99.90
11615;DHT22;5863;52.832;4.758;2023-02-28T09:32:00;5.70;99.90
11615;DHT22;5863;52.832;4.758;2023-02-28T09:34:27;5.70;99.90
11615;DHT22;5863;52.832;4.758;2023-02-28T09:36:57;5.70;99.90
11615;DHT22;5863;52.832;4.758;2023-02-28T09:39:24;5.70;99.90
11615;DHT22;5863;52.832;4.758;2023-02-28T09:41:52;5.60;99.90
11615;DHT22;5863;52.832;4.758;2023-02-28T09:44:24;5.60;99.90
11615;DHT22;5863;52.832;4.758;2023-02-28T09:46:57;5.70;99.90
11615;DHT22;5863;52.832;4.758;2023-02-28T09:49:31;5.70;99.90
11615;DHT22;5863;52.832;4.758;2023-02-28T09:52:02;5.80;99.90
11615;DHT22;5863;52.832;4.758;2023-02-28T09:54:31;5.80;99.90
11615;DHT22;5863;52.832;4.758;2023-02-28T09:57:01;5.80;99.90
11615;DHT22;5863;52.832;4.758;2023-02-28T09:59:38;5.80;99.90
11615;DHT22;5863;52.832;4.758;2023-02-28T10:02:17;5.90;99.90
11615;DHT22;5863;52.832;4.758;2023-02-28T10:04:47;6.00;99.90
11615;DHT22;5863;52.832;4.758;2023-02-28T10:07:26;5.90;99.90
11615;DHT22;5863;52.832;4.758;2023-02-28T10:09:57;5.90;99.90
11615;DHT22;5863;52.832;4.758;2023-02-28T10:12:27;5.90;99.90
11615;DHT22;5863;52.832;4.758;2023-02-28T10:14:58;5.90;99.90
11615;DHT22;5863;52.832;4.758;2023-02-28T10:17:34;6.00;99.90
11615;DHT22;5863;52.832;4.758;2023-02-28T10:20:09;6.00;99.90
11615;DHT22;5863;52.832;4.758;2023-02-28T10:22:44;6.00;99.90
11615;DHT22;5863;52.832;4.758;2023-02-28T10:25:18;6.10;99.90
11615;DHT22;5863;52.832;4.758;2023-02-28T10:27:45;6.10;99.90
11615;DHT22;5863;52.832;4.758;2023-02-28T10:30:13;6.10;99.90
11615;DHT22;5863;52.832;4.758;2023-02-28T10:32:44;6.10;99.90
11615;DHT22;5863;52.832;4.758;2023-02-28T10:35:16;6.10;99.90
11615;DHT22;5863;52.832;4.758;2023-02-28T10:37:47;6.00;99.90
11615;DHT22;5863;52.832;4.758;2023-02-28T10:40:28;6.00;99.90
11615;DHT22;5863;52.832;4.758;2023-02-28T10:42:57;6.00;99.90
11615;DHT22;5863;52.832;4.758;2023-02-28T10:45:26;6.00;99.90
11615;DHT22;5863;52.832;4.758;2023-02-28T10:47:56;6.00;99.90
11615;DHT22;5863;52.832;4.758;2023-02-28T10:50:29;6.00;99.90
11615;DHT22;5863;52.832;4.758;2023-02-28T10:53:29;6.00;99.90
11615;DHT22;5863;52.832;4.758;2023-02-28T10:55:59;6.10;99.90
11615;DHT22;5863;52.832;4.758;2023-02-28T10:58:29;6.10;99.90
11615;DHT22;5863;52.832;4.758;2023-02-28T11:04:01;6.20;99.90
11615;DHT22;5863;52.832;4.758;2023-02-28T11:06:30;6.20;99.90
11615;DHT22;5863;52.832;4.758;2023-02-28T11:09:00;6.30;99.90
11615;DHT22;5863;52.832;4.758;2023-02-28T11:11:31;6.40;99.90
11615;DHT22;5863;52.832;4.758;2023-02-28T11:14:18;6.50;99.90
11615;DHT22;5863;52.832;4.758;2023-02-28T11:17:02;6.50;99.90
11615;DHT22;5863;52.832;4.758;2023-02-28T11:19:40;6.50;99.90
11615;DHT22;5863;52.832;4.758;2023-02-28T11:22:07;6.60;99.90
11615;DHT22;5863;52.832;4.758;2023-02-28T11:24:43;6.60;99.90
11615;DHT22;5863;52.832;4.758;2023-02-28T11:27:25;6.70;99.90
11615;DHT22;5863;52.832;4.758;2023-02-28T11:29:52;6.80;99.90
11615;DHT22;5863;52.832;4.758;2023-02-28T11:32:20;6.90;99.90
11615;DHT22;5863;52.832;4.758;2023-02-28T11:35:14;6.90;99.90
11615;DHT22;5863;52.832;4.758;2023-02-28T11:37:43;7.00;99.90
11615;DHT22;5863;52.832;4.758;2023-02-28T11:40:14;7.00;99.90
11615;DHT22;5863;52.832;4.758;2023-02-28T11:43:06;7.10;99.90
11615;DHT22;5863;52.832;4.758;2023-02-28T11:45:45;7.20;99.90
11615;DHT22;5863;52.832;4.758;2023-02-28T11:48:20;7.30;99.90
11615;DHT22;5863;52.832;4.758;2023-02-28T11:50:57;7.30;99.90
11615;DHT22;5863;52.832;4.758;2023-02-28T11:53:39;7.30;99.90
11615;DHT22;5863;52.832;4.758;2023-02-28T11:56:31;7.40;99.90
11615;DHT22;5863;52.832;4.758;2023-02-28T11:59:11;7.40;99.90
11615;DHT22;5863;52.832;4.758;2023-02-28T12:02:20;7.50;99.90
11615;DHT22;5863;52.832;4.758;2023-02-28T12:04:53;7.60;99.90
11615;DHT22;5863;52.832;4.758;2023-02-28T12:07:28;7.60;99.90
11615;DHT22;5863;52.832;4.758;2023-02-28T12:10:01;7.60;99.90
11615;DHT22;5863;52.832;4.758;2023-02-28T12:12:39;7.70;99.90
11615;DHT22;5863;52.832;4.758;2023-02-28T12:15:21;7.70;99.90
11615;DHT22;5863;52.832;4.758;2023-02-28T12:17:59;7.80;99.90
11615;DHT22;5863;52.832;4.758;2023-02-28T12:20:34;7.70;99.90
11615;DHT22;5863;52.832;4.758;2023-02-28T12:23:40;7.80;99.90
11615;DHT22;5863;52.832;4.758;2023-02-28T12:26:14;7.80;99.90
11615;DHT22;5863;52.832;4.758;2023-02-28T12:28:47;7.80;99.90
11615;DHT22;5863;52.832;4.758;2023-02-28T12:31:19;7.90;99.90
11615;DHT22;5863;52.832;4.758;2023-02-28T12:33:50;7.90;99.90
11615;DHT22;5863;52.832;4.758;2023-02-28T12:36:19;8.10;99.90
11615;DHT22;5863;52.832;4.758;2023-02-28T12:38:50;8.00;99.90
11615;DHT22;5863;52.832;4.758;2023-02-28T12:41:19;8.00;99.90
11615;DHT22;5863;52.832;4.758;2023-02-28T12:43:55;8.20;99.90
11615;DHT22;5863;52.832;4.758;2023-02-28T12:46:25;8.20;99.90
11615;DHT22;5863;52.832;4.758;2023-02-28T12:48:56;8.20;99.90
11615;DHT22;5863;52.832;4.758;2023-02-28T12:51:24;8.20;99.90
11615;DHT22;5863;52.832;4.758;2023-02-28T12:53:59;8.30;99.90
11615;DHT22;5863;52.832;4.758;2023-02-28T12:56:34;8.30;99.90
11615;DHT22;5863;52.832;4.758;2023-02-28T12:59:11;8.30;99.90
11615;DHT22;5863;52.832;4.758;2023-02-28T13:02:02;8.30;99.90
11615;DHT22;5863;52.832;4.758;2023-02-28T13:04:57;8.30;99.90
11615;DHT22;5863;52.832;4.758;2023-02-28T13:07:49;8.30;99.90
11615;DHT22;5863;52.832;4.758;2023-02-28T13:10:19;8.30;99.90
11615;DHT22;5863;52.832;4.758;2023-02-28T13:12:49;8.20;99.90
11615;DHT22;5863;52.832;4.758;2023-02-28T13:15:20;8.30;99.90
11615;DHT22;5863;52.832;4.758;2023-02-28T13:17:51;8.30;99.90
11615;DHT22;5863;52.832;4.758;2023-02-28T13:20:20;8.30;99.90
11615;DHT22;5863;52.832;4.758;2023-02-28T13:22:48;8.30;99.90
11615;DHT22;5863;52.832;4.758;2023-02-28T13:34:40;8.60;99.90
11615;DHT22;5863;52.832;4.758;2023-02-28T13:37:34;8.60;99.90
11615;DHT22;5863;52.832;4.758;2023-02-28T13:43:08;8.50;99.90
11615;DHT22;5863;52.832;4.758;2023-02-28T13:45:35;8.50;99.90
11615;DHT22;5863;52.832;4.758;2023-02-28T13:48:05;8.40;99.90
11615;DHT22;5863;52.832;4.758;2023-02-28T13:50:43;8.30;99.90
11615;DHT22;5863;52.832;4.758;2023-02-28T13:53:34;8.20;99.90
11615;DHT22;5863;52.832;4.758;2023-02-28T13:56:17;8.10;99.90
11615;DHT22;5863;52.832;4.758;2023-02-28T13:58:53;8.10;99.90
11615;DHT22;5863;52.832;4.758;2023-02-28T14:01:38;8.10;99.90
11615;DHT22;5863;52.832;4.758;2023-02-28T14:07:02;8.10;99.90
11615;DHT22;5863;52.832;4.758;2023-02-28T14:09:31;8.10;99.90
11615;DHT22;5863;52.832;4.758;2023-02-28T14:14:59;8.00;99.90
11615;DHT22;5863;52.832;4.758;2023-02-28T14:17:26;8.10;99.90
11615;DHT22;5863;52.832;4.758;2023-02-28T14:19:53;8.20;99.90
11615;DHT22;5863;52.832;4.758;2023-02-28T14:22:46;8.30;99.90
11615;DHT22;5863;52.832;4.758;2023-02-28T14:25:22;8.20;99.90
11615;DHT22;5863;52.832;4.758;2023-02-28T14:27:57;8.10;99.90
11615;DHT22;5863;52.832;4.758;2023-02-28T14:30:49;8.00;99.90
11615;DHT22;5863;52.832;4.758;2023-02-28T14:33:25;8.10;99.90
11615;DHT22;5863;52.832;4.758;2023-02-28T14:36:12;8.20;99.90
11615;DHT22;5863;52.832;4.758;2023-02-28T14:38:46;8.20;99.90
11615;DHT22;5863;52.832;4.758;2023-02-28T14:41:23;8.10;99.90
11615;DHT22;5863;52.832;4.758;2023-02-28T14:43:56;7.90;99.90
11615;DHT22;5863;52.832;4.758;2023-02-28T14:46:26;8.00;99.90
11615;DHT22;5863;52.832;4.758;2023-02-28T14:48:55;8.10;99.90
11615;DHT22;5863;52.832;4.758;2023-02-28T14:51:23;8.10;99.90
11615;DHT22;5863;52.832;4.758;2023-02-28T14:53:57;8.10;99.90
11615;DHT22;5863;52.832;4.758;2023-02-28T14:56:27;8.10;99.90
11615;DHT22;5863;52.832;4.758;2023-02-28T14:58:56;8.10;99.90
11615;DHT22;5863;52.832;4.758;2023-02-28T15:01:24;8.00;99.90
11615;DHT22;5863;52.832;4.758;2023-02-28T15:04:01;8.00;99.90
11615;DHT22;5863;52.832;4.758;2023-02-28T15:06:29;8.00;99.90
11615;DHT22;5863;52.832;4.758;2023-02-28T15:09:15;7.90;99.90
11615;DHT22;5863;52.832;4.758;2023-02-28T15:11:50;7.90;99.90
11615;DHT22;5863;52.832;4.758;2023-02-28T15:14:19;7.90;99.90
11615;DHT22;5863;52.832;4.758;2023-02-28T15:16:49;7.80;99.90
11615;DHT22;5863;52.832;4.758;2023-02-28T15:19:20;7.80;99.90
11615;DHT22;5863;52.832;4.758;2023-02-28T15:21:51;7.70;99.90
11615;DHT22;5863;52.832;4.758;2023-02-28T15:24:22;7.70;99.90
11615;DHT22;5863;52.832;4.758;2023-02-28T15:26:54;7.60;99.90
11615;DHT22;5863;52.832;4.758;2023-02-28T15:29:23;7.60;99.90
11615;DHT22;5863;52.832;4.758;2023-02-28T15:31:56;7.50;99.90
11615;DHT22;5863;52.832;4.758;2023-02-28T15:34:27;7.50;99.90
11615;DHT22;5863;52.832;4.758;2023-02-28T15:36:55;7.30;99.90
11615;DHT22;5863;52.832;4.758;2023-02-28T15:39:26;7.40;99.90
11615;DHT22;5863;52.832;4.758;2023-02-28T15:42:09;7.30;99.90
11615;DHT22;5863;52.832;4.758;2023-02-28T15:44:36;7.30;99.90
11615;DHT22;5863;52.832;4.758;2023-02-28T15:47:05;7.20;99.90
11615;DHT22;5863;52.832;4.758;2023-02-28T15:49:39;7.20;99.90
11615;DHT22;5863;52.832;4.758;2023-02-28T15:52:13;7.20;99.90
11615;DHT22;5863;52.832;4.758;2023-02-28T15:54:43;7.20;99.90
11615;DHT22;5863;52.832;4.758;2023-02-28T15:57:14;7.10;99.90
11615;DHT22;5863;52.832;4.758;2023-02-28T15:59:49;7.10;99.90
11615;DHT22;5863;52.832;4.758;2023-02-28T16:02:31;7.10;99.90
11615;DHT22;5863;52.832;4.758;2023-02-28T16:05:21;7.10;99.90
11615;DHT22;5863;52.832;4.758;2023-02-28T16:07:53;7.10;99.90
11615;DHT22;5863;52.832;4.758;2023-02-28T16:10:24;7.00;99.90
11615;DHT22;5863;52.832;4.758;2023-02-28T16:12:53;7.00;99.90
11615;DHT22;5863;52.832;4.758;2023-02-28T16:15:21;6.90;99.90
11615;DHT22;5863;52.832;4.758;2023-02-28T16:17:48;6.90;99.90
11615;DHT22;5863;52.832;4.758;2023-02-28T16:20:49;6.90;99.90
11615;DHT22;5863;52.832;4.758;2023-02-28T16:23:16;6.80;99.90
11615;DHT22;5863;52.832;4.758;2023-02-28T16:25:44;6.80;99.90
11615;DHT22;5863;52.832;4.758;2023-02-28T16:28:17;6.80;99.90
11615;DHT22;5863;52.832;4.758;2023-02-28T16:30:45;6.70;99.90
11615;DHT22;5863;52.832;4.758;2023-02-28T16:33:12;6.70;99.90
11615;DHT22;5863;52.832;4.758;2023-02-28T16:35:39;6.60;99.90
11615;DHT22;5863;52.832;4.758;2023-02-28T16:38:06;6.60;99.90
11615;DHT22;5863;52.832;4.758;2023-02-28T16:40:34;6.60;99.90
11615;DHT22;5863;52.832;4.758;2023-02-28T16:43:05;6.50;99.90
11615;DHT22;5863;52.832;4.758;2023-02-28T16:45:33;6.40;99.90
11615;DHT22;5863;52.832;4.758;2023-02-28T16:48:00;6.30;99.90
11615;DHT22;5863;52.832;4.758;2023-02-28T16:50:28;6.40;99.90
11615;DHT22;5863;52.832;4.758;2023-02-28T16:52:56;6.40;99.90